Time;durP1;ratioP1;P1;durP2;ratioP2;P2;SDS_P1;SDS_P2;PMS_P1;PMS_P2;Temp;Humidity;BMP_temperature;BMP_pressure;BME280_temperature;BME280_humidity;BME280_pressure;Samples;Min_cycle;Max_cycle;Signal;HPM_P1;HPM_P2
2022/11/07 00:02:00;;;;;;;17.20;11.90;;;10.10;99.90;;;;;;5071687;28;20215;-76
2022/11/07 00:04:30;;;;;;;19.27;11.73;;;10.20;99.90;;;;;;5052894;28;20072;-77
2022/11/07 00:06:56;;;;;;;15.87;11.53;;;10.30;99.90;;;;;;5056611;28;20052;-75
2022/11/07 00:09:22;;;;;;;16.33;11.60;;;10.20;99.90;;;;;;5070464;28;20581;-75
2022/11/07 00:11:47;;;;;;;16.40;12.00;;;10.30;99.90;;;;;;5072038;28;20139;-76
2022/11/07 00:14:15;;;;;;;19.73;11.73;;;10.30;99.90;;;;;;5052934;28;20052;-76
2022/11/07 00:16:42;;;;;;;18.83;12.20;;;10.20;99.90;;;;;;5040302;28;20048;-75
2022/11/07 00:19:08;;;;;;;18.57;11.60;;;10.20;99.90;;;;;;5068577;28;20083;-76
2022/11/07 00:21:34;;;;;;;22.80;12.30;;;10.10;99.90;;;;;;5051725;28;20376;-77
2022/11/07 00:24:00;;;;;;;18.93;11.47;;;10.10;99.90;;;;;;5054774;28;20519;-74
2022/11/07 00:26:26;;;;;;;17.07;11.07;;;10.20;99.90;;;;;;5059030;28;20569;-76
2022/11/07 00:28:52;;;;;;;19.13;11.40;;;10.10;99.90;;;;;;5048717;28;20413;-78
2022/11/07 00:31:17;;;;;;;18.57;10.47;;;10.20;99.90;;;;;;5071109;28;20052;-76
2022/11/07 00:33:44;;;;;;;19.40;11.43;;;10.20;99.90;;;;;;5053517;28;20056;-76
2022/11/07 00:36:22;;;;;;;21.17;11.10;;;10.20;99.90;;;;;;5062534;28;20059;-82
2022/11/07 00:38:48;;;;;;;21.57;12.23;;;10.20;99.90;;;;;;5066574;28;20049;-76
2022/11/07 00:41:14;;;;;;;17.50;11.97;;;10.20;99.90;;;;;;5070951;28;20063;-76
2022/11/07 00:43:40;;;;;;;18.70;12.00;;;10.10;99.90;;;;;;5070196;28;20043;-75
2022/11/07 00:46:07;;;;;;;19.27;11.53;;;10.30;99.90;;;;;;5071256;28;20441;-77
2022/11/07 00:48:33;;;;;;;16.77;10.40;;;10.30;99.90;;;;;;5059645;28;20052;-76
2022/11/07 00:51:14;;;;;;;18.50;11.37;;;10.30;99.90;;;;;;5070616;28;20078;-76
2022/11/07 00:53:40;;;;;;;17.80;9.25;;;10.30;99.90;;;;;;5068670;28;20052;-75
2022/11/07 00:56:09;;;;;;;16.03;9.80;;;10.30;99.90;;;;;;5069600;28;20131;-81
2022/11/07 00:58:35;;;;;;;19.73;10.60;;;10.30;99.90;;;;;;5057947;28;20102;-75
2022/11/07 01:01:14;;;;;;;16.03;10.03;;;10.40;99.90;;;;;;5070495;28;20156;-78
2022/11/07 01:06:26;;;;;;;20.17;11.20;;;10.40;99.90;;;;;;5058359;28;20349;-76
2022/11/07 01:08:53;;;;;;;21.20;11.00;;;10.40;99.90;;;;;;5066299;28;20072;-77
2022/11/07 01:11:20;;;;;;;23.87;11.63;;;10.30;99.90;;;;;;5070715;28;20044;-76
2022/11/07 01:13:45;;;;;;;20.27;12.30;;;10.40;99.90;;;;;;5051812;28;20591;-75
2022/11/07 01:16:11;;;;;;;23.60;13.43;;;10.30;99.90;;;;;;5062823;28;20048;-77
2022/11/07 01:18:37;;;;;;;28.30;13.23;;;10.30;99.90;;;;;;5061744;28;20049;-75
2022/11/07 01:21:05;;;;;;;21.80;13.07;;;10.30;99.90;;;;;;5054852;28;20052;-75
2022/11/07 01:23:30;;;;;;;23.90;11.70;;;10.30;99.90;;;;;;5050390;28;20083;-74
2022/11/07 01:25:56;;;;;;;17.80;10.40;;;10.30;99.90;;;;;;5069721;28;20056;-76
2022/11/07 01:28:22;;;;;;;22.77;11.13;;;10.50;99.90;;;;;;5054195;28;20131;-75
2022/11/07 01:30:47;;;;;;;22.57;12.93;;;10.40;99.90;;;;;;5069744;28;20498;-75
2022/11/07 01:33:13;;;;;;;20.03;10.73;;;10.50;99.90;;;;;;5069300;28;20072;-75
2022/11/07 01:35:39;;;;;;;23.77;11.33;;;10.30;99.90;;;;;;5039058;28;20588;-75
2022/11/07 01:38:06;;;;;;;23.57;12.27;;;10.30;99.90;;;;;;5034459;28;20140;-75
2022/11/07 01:41:19;;;;;;;19.70;11.30;;;10.40;99.90;;;;;;5049393;28;20053;-78
2022/11/07 01:43:20;;;;;;;20.77;10.37;;;10.30;99.90;;;;;;5048599;28;20037;-75
2022/11/07 01:45:46;;;;;;;22.03;11.37;;;10.30;99.90;;;;;;5031990;28;20062;-75
2022/11/07 01:48:11;;;;;;;25.63;12.00;;;10.30;99.90;;;;;;5033573;28;20144;-75
2022/11/07 01:50:37;;;;;;;28.27;11.97;;;10.30;99.90;;;;;;5015595;28;20060;-75
2022/11/07 01:53:03;;;;;;;22.37;11.73;;;10.30;99.90;;;;;;5048582;28;20491;-77
2022/11/07 01:55:32;;;;;;;23.90;10.37;;;10.30;99.90;;;;;;5058957;28;20101;-75
2022/11/07 01:58:04;;;;;;;16.60;9.50;;;10.30;99.90;;;;;;5035882;28;20075;-75
2022/11/07 02:00:32;;;;;;;21.00;9.73;;;10.30;99.90;;;;;;5051793;28;20041;-75
2022/11/07 02:03:01;;;;;;;15.30;9.77;;;10.50;99.90;;;;;;5068852;28;20448;-76
2022/11/07 02:05:33;;;;;;;19.07;9.87;;;10.20;99.90;;;;;;5069387;28;20048;-76
2022/11/07 02:08:01;;;;;;;19.20;9.57;;;10.40;99.90;;;;;;5053336;28;20119;-77
2022/11/07 02:10:28;;;;;;;17.80;8.67;;;10.40;99.90;;;;;;5038421;28;20116;-76
2022/11/07 02:12:56;;;;;;;20.37;9.57;;;10.50;99.90;;;;;;5048756;28;20106;-76
2022/11/07 02:15:22;;;;;;;20.30;9.57;;;10.40;99.90;;;;;;5053077;28;20508;-75
2022/11/07 02:17:48;;;;;;;21.47;9.20;;;10.40;99.90;;;;;;5039509;28;20065;-75
2022/11/07 02:20:14;;;;;;;16.80;8.70;;;10.40;99.90;;;;;;5058720;28;20037;-75
2022/11/07 02:22:54;;;;;;;19.90;8.30;;;10.40;99.90;;;;;;5048453;28;20041;-76
2022/11/07 02:25:20;;;;;;;20.83;8.03;;;10.30;99.90;;;;;;5049732;28;20085;-75
2022/11/07 02:27:49;;;;;;;15.87;7.20;;;10.30;99.90;;;;;;5015058;28;20086;-75
2022/11/07 02:30:22;;;;;;;19.60;7.60;;;10.40;99.90;;;;;;5044807;28;20044;-76
2022/11/07 02:32:48;;;;;;;15.10;7.50;;;10.40;99.90;;;;;;5034119;28;20036;-77
2022/11/07 02:35:40;;;;;;;19.27;7.27;;;10.30;99.90;;;;;;5058855;28;20068;-75
2022/11/07 02:38:09;;;;;;;;;;;10.40;99.90;;;;;;5054298;28;20268;-75
2022/11/07 02:40:35;;;;;;;18.33;7.07;;;10.40;99.90;;;;;;5068739;28;19924;-76
2022/11/07 02:43:03;;;;;;;19.93;6.83;;;10.50;99.90;;;;;;5048516;28;20086;-76
2022/11/07 02:45:33;;;;;;;15.07;6.07;;;10.50;99.90;;;;;;5049273;28;20127;-75
2022/11/07 02:47:59;;;;;;;13.50;5.60;;;10.60;99.90;;;;;;5015157;28;20040;-79
2022/11/07 02:50:25;;;;;;;16.23;6.17;;;10.40;99.90;;;;;;5036237;28;20497;-76
2022/11/07 02:52:50;;;;;;;18.77;6.47;;;10.50;99.90;;;;;;5063587;28;20511;-75
2022/11/07 02:55:16;;;;;;;19.17;6.10;;;10.30;99.90;;;;;;5064155;28;20052;-76
2022/11/07 02:57:42;;;;;;;18.63;6.00;;;10.30;99.90;;;;;;5020808;28;20044;-79
2022/11/07 03:00:10;;;;;;;18.37;5.70;;;10.20;99.90;;;;;;5063716;28;20079;-76
2022/11/07 03:02:36;;;;;;;15.83;6.23;;;10.40;99.90;;;;;;5072210;28;20060;-76
2022/11/07 03:05:03;;;;;;;16.87;5.70;;;10.20;99.90;;;;;;5055146;28;20037;-76
2022/11/07 03:07:29;;;;;;;16.70;5.90;;;10.30;99.90;;;;;;5038493;28;20478;-75
2022/11/07 03:09:54;;;;;;;16.83;6.00;;;10.40;99.90;;;;;;5050881;28;20056;-76
2022/11/07 03:12:20;;;;;;;14.33;5.33;;;10.40;99.90;;;;;;5072192;28;20051;-76
2022/11/07 03:14:46;;;;;;;17.30;5.53;;;10.50;99.90;;;;;;5038445;28;20186;-76
2022/11/07 03:17:11;;;;;;;16.87;5.27;;;10.50;99.90;;;;;;5056651;28;20044;-76
2022/11/07 03:19:37;;;;;;;16.27;5.30;;;10.50;99.90;;;;;;5054641;28;20120;-75
2022/11/07 03:22:03;;;;;;;15.33;5.17;;;10.50;99.90;;;;;;5055114;28;20068;-75
2022/11/07 03:24:29;;;;;;;17.13;5.73;;;10.60;99.90;;;;;;5045977;28;20049;-74
2022/11/07 03:26:54;;;;;;;17.77;5.83;;;10.50;99.90;;;;;;5037093;28;20102;-77
2022/11/07 03:29:20;;;;;;;17.83;6.97;;;10.40;99.90;;;;;;5051639;28;20092;-76
2022/11/07 03:31:46;;;;;;;22.93;7.00;;;10.40;99.90;;;;;;5052172;28;20053;-76
2022/11/07 03:34:11;;;;;;;23.17;7.97;;;10.30;99.90;;;;;;5052228;28;20110;-75
2022/11/07 03:36:37;;;;;;;23.57;7.20;;;10.30;99.90;;;;;;5058448;28;20405;-78
2022/11/07 03:39:03;;;;;;;18.43;7.03;;;10.30;99.90;;;;;;5070375;28;20467;-76
2022/11/07 03:41:28;;;;;;;19.10;7.87;;;10.30;99.90;;;;;;5071771;28;20054;-75
2022/11/07 03:43:54;;;;;;;16.20;6.97;;;10.30;99.90;;;;;;5071716;28;20401;-75
2022/11/07 03:46:19;;;;;;;25.90;7.47;;;10.20;99.90;;;;;;5061201;28;20055;-74
2022/11/07 03:48:45;;;;;;;22.37;5.83;;;10.10;99.90;;;;;;5048558;28;20371;-74
2022/11/07 03:51:11;;;;;;;20.97;6.60;;;10.10;99.90;;;;;;5072373;28;20378;-74
2022/11/07 03:53:37;;;;;;;22.53;6.00;;;10.30;99.90;;;;;;5070987;28;20438;-74
2022/11/07 03:56:10;;;;;;;18.10;6.20;;;10.10;99.90;;;;;;5058374;28;20049;-75
2022/11/07 03:58:37;;;;;;;17.83;5.50;;;10.20;99.90;;;;;;5043708;28;20064;-75
2022/11/07 04:01:04;;;;;;;19.83;5.93;;;10.10;99.90;;;;;;5051348;28;20402;-75
2022/11/07 04:03:30;;;;;;;21.47;5.23;;;10.10;99.90;;;;;;5051149;28;20045;-75
2022/11/07 04:05:55;;;;;;;18.63;5.30;;;10.10;99.90;;;;;;5033662;28;20395;-76
2022/11/07 04:08:21;;;;;;;22.37;5.10;;;10.10;99.90;;;;;;5035175;28;20113;-76
2022/11/07 04:10:47;;;;;;;19.50;4.67;;;10.00;99.90;;;;;;5055699;28;20415;-80
2022/11/07 04:18:41;;;;;;;22.53;5.33;;;10.00;99.90;;;;;;5045175;28;20053;-75
2022/11/07 04:21:07;;;;;;;24.40;6.10;;;10.00;99.90;;;;;;5033585;28;20071;-75
2022/11/07 04:23:32;;;;;;;17.27;5.10;;;10.10;99.90;;;;;;5050676;28;20095;-75
2022/11/07 04:28:42;;;;;;;21.93;6.07;;;10.10;99.90;;;;;;5065615;28;20049;-75
2022/11/07 04:31:08;;;;;;;19.13;5.43;;;9.90;99.90;;;;;;5053713;28;20140;-75
2022/11/07 04:33:34;;;;;;;18.50;6.07;;;10.00;99.90;;;;;;5070012;28;20052;-75
2022/11/07 04:35:59;;;;;;;24.27;5.83;;;9.90;99.90;;;;;;5037942;28;20052;-75
2022/11/07 04:38:25;;;;;;;18.80;5.73;;;10.10;99.90;;;;;;5018047;28;20107;-75
2022/11/07 04:40:57;;;;;;;19.90;6.03;;;10.10;99.90;;;;;;5050967;28;20048;-75
2022/11/07 04:43:24;;;;;;;25.80;6.90;;;10.10;99.90;;;;;;5050218;28;20088;-74
2022/11/07 04:45:50;;;;;;;24.57;6.80;;;10.20;99.90;;;;;;5034099;28;20513;-75
2022/11/07 04:48:16;;;;;;;24.17;7.40;;;10.10;99.90;;;;;;5054586;28;20123;-75
2022/11/07 04:50:43;;;;;;;23.87;6.80;;;10.10;99.90;;;;;;5071206;28;20051;-75
2022/11/07 04:53:13;;;;;;;22.50;6.50;;;10.20;99.90;;;;;;5052066;28;20094;-74
2022/11/07 04:55:39;;;;;;;25.90;6.87;;;10.20;99.90;;;;;;5048683;28;20052;-77
2022/11/07 04:58:05;;;;;;;27.10;6.77;;;10.10;99.90;;;;;;5034560;28;20483;-74
2022/11/07 05:00:30;;;;;;;23.87;7.57;;;10.20;99.90;;;;;;5033375;28;20565;-75
2022/11/07 05:02:56;;;;;;;22.67;6.47;;;10.20;99.90;;;;;;5049315;28;20060;-76
2022/11/07 05:05:22;;;;;;;25.73;7.07;;;10.20;99.90;;;;;;5051018;28;20143;-75
2022/11/07 05:07:48;;;;;;;29.40;7.57;;;10.20;99.90;;;;;;5034088;28;20513;-74
2022/11/07 05:10:33;;;;;;;21.60;6.87;;;10.10;99.90;;;;;;5061575;28;20091;-74
2022/11/07 05:12:59;;;;;;;28.67;8.23;;;10.20;99.90;;;;;;5069484;28;20406;-74
2022/11/07 05:15:25;;;;;;;25.40;7.53;;;10.20;99.90;;;;;;5065255;28;20039;-76
2022/11/07 05:17:51;;;;;;;22.60;8.40;;;10.10;99.90;;;;;;5041880;28;20178;-75
2022/11/07 05:20:35;;;;;;;26.17;8.27;;;10.00;99.90;;;;;;5064546;28;20375;-75
2022/11/07 05:23:20;;;;;;;21.03;8.10;;;10.00;99.90;;;;;;5064634;28;20128;-74
2022/11/07 05:25:51;;;;;;;24.97;7.97;;;10.00;99.90;;;;;;5065452;28;20119;-78
2022/11/07 05:28:30;;;;;;;23.40;8.02;;;9.90;99.90;;;;;;5050966;28;20048;-76
2022/11/07 05:31:02;;;;;;;20.30;8.00;;;9.80;99.90;;;;;;5067323;28;20414;-76
2022/11/07 05:33:28;;;;;;;27.67;7.90;;;9.90;99.90;;;;;;5067384;28;20082;-75
2022/11/07 05:35:54;;;;;;;20.60;7.20;;;9.90;99.90;;;;;;5055047;28;20044;-76
2022/11/07 05:38:20;;;;;;;27.03;7.63;;;9.90;99.90;;;;;;5034443;28;20127;-75
2022/11/07 05:40:46;;;;;;;23.63;7.73;;;10.00;99.90;;;;;;5050038;28;20462;-75
2022/11/07 05:43:13;;;;;;;29.33;8.70;;;9.90;99.90;;;;;;5048801;28;20048;-74
2022/11/07 05:45:40;;;;;;;20.10;7.63;;;9.80;99.90;;;;;;5050300;28;20037;-75
2022/11/07 05:48:11;;;;;;;21.93;8.37;;;9.80;99.90;;;;;;5052606;28;20056;-76
2022/11/07 05:50:38;;;;;;;27.63;9.00;;;9.80;99.90;;;;;;5043883;28;20052;-76
2022/11/07 05:53:04;;;;;;;19.73;8.17;;;9.90;99.90;;;;;;5064548;28;20053;-77
2022/11/07 05:55:30;;;;;;;19.10;8.63;;;10.00;99.90;;;;;;5058063;28;20126;-75
2022/11/07 05:57:55;;;;;;;23.13;9.00;;;10.00;99.90;;;;;;5029235;28;20135;-74
2022/11/07 06:00:22;;;;;;;23.00;9.47;;;10.00;99.90;;;;;;5049157;28;20045;-75
2022/11/07 06:03:00;;;;;;;19.27;8.30;;;10.00;99.90;;;;;;5048541;28;20048;-75
2022/11/07 06:05:27;;;;;;;22.43;8.90;;;10.10;99.90;;;;;;5016023;28;20049;-75
2022/11/07 06:07:52;;;;;;;19.97;8.53;;;10.10;99.90;;;;;;5015468;28;20510;-77
2022/11/07 06:10:18;;;;;;;25.83;9.23;;;10.00;99.90;;;;;;5061523;28;20087;-76
2022/11/07 06:12:44;;;;;;;27.17;9.53;;;10.00;99.90;;;;;;5050981;28;20044;-74
2022/11/07 06:15:10;;;;;;;17.93;8.53;;;10.00;99.90;;;;;;5069078;28;20095;-79
2022/11/07 06:17:36;;;;;;;22.93;9.23;;;10.00;99.90;;;;;;5049233;28;20379;-78
2022/11/07 06:20:03;;;;;;;19.73;9.43;;;9.70;99.90;;;;;;5050760;28;20052;-77
2022/11/07 06:22:29;;;;;;;21.87;9.27;;;9.90;99.90;;;;;;5065924;28;20047;-75
2022/11/07 06:24:55;;;;;;;25.17;9.10;;;9.90;99.90;;;;;;5066150;28;20409;-77
2022/11/07 06:27:21;;;;;;;19.47;8.77;;;9.90;99.90;;;;;;5034941;28;20437;-76
2022/11/07 06:29:46;;;;;;;21.67;8.97;;;9.70;99.90;;;;;;5068301;28;20056;-75
2022/11/07 06:32:12;;;;;;;23.40;9.90;;;9.80;99.90;;;;;;5067534;28;20131;-75
2022/11/07 06:34:38;;;;;;;25.23;10.10;;;9.90;99.90;;;;;;5071870;28;20516;-75
2022/11/07 06:37:03;;;;;;;22.43;10.27;;;9.80;99.90;;;;;;5033864;28;20250;-75
2022/11/07 06:39:29;;;;;;;18.60;10.83;;;10.00;99.90;;;;;;5048677;28;20052;-75
2022/11/07 06:41:55;;;;;;;24.60;10.23;;;10.00;99.90;;;;;;5049124;28;20095;-75
2022/11/07 06:44:20;;;;;;;29.10;10.60;;;10.00;99.90;;;;;;5047850;28;20044;-75
2022/11/07 06:46:46;;;;;;;30.80;9.30;;;10.00;99.90;;;;;;5034334;28;20049;-74
2022/11/07 06:49:13;;;;;;;22.10;8.33;;;9.90;99.90;;;;;;5047486;28;20059;-75
2022/11/07 06:51:39;;;;;;;15.20;7.40;;;10.00;99.90;;;;;;5049185;28;20059;-75
2022/11/07 06:54:04;;;;;;;18.13;7.97;;;9.90;99.90;;;;;;5055649;28;20049;-75
2022/11/07 06:56:30;;;;;;;16.90;6.47;;;9.90;99.90;;;;;;5038984;28;20383;-75
2022/11/07 06:58:56;;;;;;;24.73;6.73;;;10.00;99.90;;;;;;5044484;28;20255;-76
2022/11/07 07:01:21;;;;;;;19.63;6.63;;;9.90;99.90;;;;;;5048788;28;20099;-76
2022/11/07 07:03:47;;;;;;;19.00;7.00;;;9.90;99.90;;;;;;5048318;28;20065;-75
2022/11/07 07:06:15;;;;;;;17.77;6.30;;;9.80;99.90;;;;;;5041391;28;20045;-80
2022/11/07 07:08:41;;;;;;;18.00;6.60;;;9.90;99.90;;;;;;5024173;28;20120;-74
2022/11/07 07:11:09;;;;;;;14.40;6.00;;;10.00;99.90;;;;;;5033064;28;20416;-75
2022/11/07 07:13:36;;;;;;;19.47;6.53;;;10.00;99.90;;;;;;5050015;28;20787;-75
2022/11/07 07:16:02;;;;;;;22.97;6.50;;;10.10;99.90;;;;;;5068693;28;20052;-77
2022/11/07 07:18:28;;;;;;;18.07;6.97;;;10.10;99.90;;;;;;5052476;28;20120;-76
2022/11/07 07:21:04;;;;;;;23.83;7.50;;;10.10;99.90;;;;;;5054722;28;20136;-75
2022/11/07 07:23:32;;;;;;;23.67;8.43;;;10.00;99.90;;;;;;5022305;28;20105;-74
2022/11/07 07:25:57;;;;;;;23.80;8.27;;;10.20;99.90;;;;;;5069120;28;20055;-75
2022/11/07 07:28:23;;;;;;;26.43;9.57;;;10.00;99.90;;;;;;5052542;28;20048;-75
2022/11/07 07:30:48;;;;;;;22.47;9.67;;;10.20;99.90;;;;;;5063895;28;20049;-76
2022/11/07 07:33:14;;;;;;;24.10;10.47;;;10.30;99.90;;;;;;5055693;28;20079;-76
2022/11/07 07:35:40;;;;;;;27.30;11.80;;;10.10;99.90;;;;;;5056895;28;20059;-74
2022/11/07 07:38:05;;;;;;;28.93;11.67;;;10.20;99.90;;;;;;5041390;28;20045;-75
2022/11/07 07:40:31;;;;;;;29.07;13.90;;;10.20;99.90;;;;;;5041175;28;20037;-74
2022/11/07 07:42:57;;;;;;;30.93;13.23;;;10.20;99.90;;;;;;5062806;28;20055;-75
2022/11/07 07:45:22;;;;;;;29.67;13.67;;;10.30;99.90;;;;;;5063394;28;20036;-74
2022/11/07 07:47:48;;;;;;;31.03;13.87;;;10.40;99.90;;;;;;5045316;28;20643;-74
2022/11/07 07:50:14;;;;;;;22.90;13.23;;;10.30;99.90;;;;;;5062658;28;20106;-74
2022/11/07 07:52:40;;;;;;;30.93;14.17;;;10.30;99.90;;;;;;5044704;28;20051;-74
2022/11/07 07:55:10;;;;;;;26.80;13.77;;;10.40;99.90;;;;;;5061716;28;20036;-75
2022/11/07 07:57:38;;;;;;;23.83;13.10;;;10.30;99.90;;;;;;5046411;28;20041;-74
2022/11/07 08:00:04;;;;;;;36.27;14.30;;;10.40;99.90;;;;;;5052508;28;20068;-75
2022/11/07 08:02:30;;;;;;;32.50;14.87;;;10.30;99.90;;;;;;5070141;28;20048;-75
2022/11/07 08:04:56;;;;;;;35.97;15.70;;;10.40;99.90;;;;;;5051838;28;20047;-74
2022/11/07 08:07:23;;;;;;;36.63;14.73;;;10.30;99.90;;;;;;4994163;22;20364;-81
2022/11/07 08:09:48;;;;;;;32.40;14.00;;;10.30;99.90;;;;;;4888777;28;20054;-81
2022/11/07 08:12:14;;;;;;;29.70;14.43;;;10.30;99.90;;;;;;4990965;28;20046;-75
2022/11/07 08:14:40;;;;;;;31.40;14.70;;;10.40;99.90;;;;;;5007668;28;20582;-81
2022/11/07 08:17:05;;;;;;;29.03;15.40;;;10.30;99.90;;;;;;4994762;28;20052;-74
2022/11/07 08:19:31;;;;;;;31.87;15.27;;;10.30;99.90;;;;;;4992361;28;20049;-74
2022/11/07 08:21:57;;;;;;;35.10;14.70;;;10.40;99.90;;;;;;5014332;28;20046;-75
2022/11/07 08:24:22;;;;;;;36.13;16.00;;;10.50;99.90;;;;;;5009420;28;20073;-76
2022/11/07 08:26:49;;;;;;;31.80;15.27;;;10.40;99.90;;;;;;4995354;28;20056;-74
2022/11/07 08:29:16;;;;;;;36.50;15.20;;;10.60;99.90;;;;;;5008172;28;20554;-74
2022/11/07 08:31:49;;;;;;;32.10;14.17;;;10.50;99.90;;;;;;4993445;28;20050;-74
2022/11/07 08:34:17;;;;;;;38.87;14.93;;;10.50;99.90;;;;;;4940826;28;20046;-76
2022/11/07 08:36:45;;;;;;;36.43;14.10;;;10.50;99.90;;;;;;4989953;28;20104;-74
2022/11/07 08:39:11;;;;;;;36.70;14.53;;;10.50;99.90;;;;;;5008646;28;20082;-74
2022/11/07 08:41:37;;;;;;;36.67;14.93;;;10.60;99.90;;;;;;5010843;28;20073;-76
2022/11/07 08:44:04;;;;;;;33.60;14.07;;;10.70;99.90;;;;;;4973182;28;20046;-74
2022/11/07 08:46:33;;;;;;;37.80;14.43;;;10.60;99.90;;;;;;4966515;28;20262;-80
2022/11/07 08:49:00;;;;;;;40.77;15.00;;;10.60;99.90;;;;;;4991370;28;20049;-75
2022/11/07 08:51:28;;;;;;;34.83;13.30;;;10.60;99.90;;;;;;4991875;28;20100;-76
2022/11/07 08:53:55;;;;;;;41.40;15.53;;;10.50;99.90;;;;;;4959457;28;20403;-74
2022/11/07 08:56:24;;;;;;;35.00;13.50;;;10.60;99.90;;;;;;4966519;28;20403;-78
2022/11/07 08:58:51;;;;;;;33.63;13.77;;;10.70;99.90;;;;;;4976137;28;20057;-72
2022/11/07 09:01:18;;;;;;;35.88;14.25;;;10.60;99.90;;;;;;4991798;28;20069;-75
2022/11/07 09:03:49;;;;;;;32.65;13.30;;;10.60;99.90;;;;;;4973343;28;20052;-74
2022/11/07 09:06:17;;;;;;;33.67;14.10;;;10.70;99.90;;;;;;4992290;28;20400;-79
2022/11/07 09:08:43;;;;;;;39.47;12.63;;;10.80;99.90;;;;;;4983228;28;20137;-75
2022/11/07 09:11:11;;;;;;;30.60;12.38;;;10.70;99.90;;;;;;4989932;28;20062;-75
2022/11/07 09:13:37;;;;;;;33.45;11.70;;;10.90;99.90;;;;;;4972592;28;20118;-75
2022/11/07 09:16:07;;;;;;;27.95;11.25;;;10.90;99.90;;;;;;4972356;28;20151;-75
2022/11/07 09:18:35;;;;;;;34.95;11.00;;;10.90;99.90;;;;;;4948998;28;20078;-75
2022/11/07 09:21:03;;;;;;;26.55;10.23;;;11.00;99.90;;;;;;4988605;28;20127;-79
2022/11/07 09:23:29;;;;;;;23.85;10.75;;;11.10;99.90;;;;;;4952603;28;20042;-75
2022/11/07 09:26:01;;;;;;;24.92;9.63;;;11.10;99.90;;;;;;4990245;28;20063;-74
2022/11/07 09:28:28;;;;;;;28.75;10.02;;;11.20;99.90;;;;;;4973459;28;20050;-76
2022/11/07 09:30:55;;;;;;;23.88;9.30;;;11.20;99.90;;;;;;4987993;28;20370;-77
2022/11/07 09:33:22;;;;;;;26.83;10.10;;;11.20;99.90;;;;;;4972041;28;20508;-75
2022/11/07 09:35:49;;;;;;;26.77;9.57;;;11.10;99.90;;;;;;4994444;28;20057;-79
2022/11/07 09:38:15;;;;;;;26.77;9.63;;;11.30;99.90;;;;;;4972567;28;20129;-76
2022/11/07 09:41:04;;;;;;;24.08;8.88;;;11.30;99.90;;;;;;4990315;28;20622;-75
2022/11/07 09:43:52;;;;;;;24.98;7.85;;;11.30;99.90;;;;;;4988643;28;20451;-75
2022/11/07 09:46:34;;;;;;;30.27;9.05;;;11.30;99.90;;;;;;4979130;28;20061;-77
2022/11/07 09:49:14;;;;;;;23.58;8.07;;;11.40;99.90;;;;;;4986057;28;20054;-77
2022/11/07 09:51:44;;;;;;;23.60;8.35;;;11.30;99.90;;;;;;4989567;28;20057;-80
2022/11/07 09:54:19;;;;;;;22.02;8.73;;;11.40;99.90;;;;;;4987067;28;20571;-76
2022/11/07 09:56:47;;;;;;;19.27;7.43;;;11.40;99.90;;;;;;4974175;28;20143;-81
2022/11/07 09:59:21;;;;;;;20.92;8.20;;;11.50;99.90;;;;;;4986661;28;20058;-76
2022/11/07 10:01:47;;;;;;;30.33;9.02;;;11.40;99.90;;;;;;4988773;28;20045;-77
2022/11/07 10:04:18;;;;;;;27.23;9.18;;;11.50;99.90;;;;;;4985825;28;20050;-75
2022/11/07 10:07:11;;;;;;;29.33;9.25;;;11.50;99.90;;;;;;4966818;28;20050;-81
2022/11/07 10:10:05;;;;;;;25.27;8.23;;;11.40;99.90;;;;;;4970865;28;20043;-76
2022/11/07 10:12:54;;;;;;;28.83;8.93;;;11.40;99.90;;;;;;4957840;28;20054;-75
2022/11/07 10:15:26;;;;;;;25.80;8.82;;;11.50;99.90;;;;;;4979987;28;20047;-75
2022/11/07 10:18:34;;;;;;;20.90;7.57;;;11.50;99.90;;;;;;4962502;28;20488;-77
2022/11/07 10:21:24;;;;;;;24.58;8.50;;;11.50;99.90;;;;;;4934278;28;20072;-75
2022/11/07 10:24:21;;;;;;;24.48;9.02;;;11.50;99.90;;;;;;4957972;28;20054;-74
2022/11/07 10:26:47;;;;;;;24.27;8.02;;;11.60;99.90;;;;;;4956804;28;20101;-77
2022/11/07 10:29:18;;;;;;;18.42;8.27;;;11.70;99.90;;;;;;4974363;28;20408;-76
2022/11/07 10:32:27;;;;;;;23.70;8.23;;;11.70;99.90;;;;;;4974802;28;20547;-74
2022/11/07 10:35:11;;;;;;;25.48;8.10;;;11.70;99.90;;;;;;4984093;28;20077;-75
2022/11/07 10:37:37;;;;;;;19.90;7.78;;;11.80;99.90;;;;;;4962044;28;20093;-75
2022/11/07 10:40:32;;;;;;;17.17;6.65;;;11.90;99.90;;;;;;4985517;28;20057;-76
2022/11/07 10:43:00;;;;;;;21.63;6.45;;;12.00;99.90;;;;;;4977606;28;20128;-75
2022/11/07 10:45:26;;;;;;;22.80;6.88;;;12.00;99.90;;;;;;4977541;28;20093;-76
2022/11/07 10:48:03;;;;;;;22.50;6.80;;;11.90;99.90;;;;;;4956262;28;20527;-75
2022/11/07 10:50:30;;;;;;;22.98;6.90;;;11.90;99.90;;;;;;4978761;28;20185;-79
2022/11/07 10:53:08;;;;;;;23.65;6.97;;;12.00;99.90;;;;;;4976198;28;20289;-77
2022/11/07 10:55:50;;;;;;;22.23;6.93;;;12.10;99.90;;;;;;4966430;28;20170;-75
2022/11/07 10:58:23;;;;;;;22.88;7.00;;;12.10;99.90;;;;;;4956819;28;20080;-77
2022/11/07 11:01:21;;;;;;;20.20;6.35;;;12.10;99.90;;;;;;4958591;28;20054;-77
2022/11/07 11:03:48;;;;;;;25.02;6.50;;;12.10;99.90;;;;;;4974377;28;20163;-75
2022/11/07 11:06:22;;;;;;;21.30;5.80;;;12.10;99.90;;;;;;4969558;28;20910;-75
2022/11/07 11:08:50;;;;;;;20.17;6.10;;;12.10;99.90;;;;;;4983557;28;20416;-76
2022/11/07 11:11:27;;;;;;;26.35;6.65;;;12.10;99.90;;;;;;5001909;28;20123;-75
2022/11/07 11:14:14;;;;;;;15.68;6.28;;;12.10;99.90;;;;;;4969652;28;20381;-76
2022/11/07 11:16:41;;;;;;;20.08;5.70;;;12.00;99.90;;;;;;4975162;28;20561;-77
2022/11/07 11:19:32;;;;;;;20.98;6.00;;;12.10;99.90;;;;;;5003723;28;20140;-77
2022/11/07 11:21:58;;;;;;;20.02;6.43;;;12.10;99.90;;;;;;4999099;28;20082;-75
2022/11/07 11:24:29;;;;;;;19.85;6.22;;;12.20;99.90;;;;;;4981925;28;20050;-76
2022/11/07 11:27:02;;;;;;;21.77;6.93;;;12.10;99.90;;;;;;4971549;28;20078;-75
2022/11/07 11:29:36;;;;;;;20.65;6.75;;;12.20;99.90;;;;;;4967391;28;20059;-79
2022/11/07 11:32:04;;;;;;;20.00;7.15;;;12.20;99.90;;;;;;4976687;28;20045;-75
2022/11/07 11:34:35;;;;;;;20.48;6.32;;;12.20;99.90;;;;;;4992283;28;20038;-76
2022/11/07 11:37:08;;;;;;;20.90;6.82;;;12.30;99.90;;;;;;4960443;28;20046;-75
2022/11/07 11:39:46;;;;;;;20.80;6.20;;;12.30;99.90;;;;;;5005630;28;20052;-77
2022/11/07 11:42:59;;;;;;;23.33;7.43;;;12.40;99.90;;;;;;4971268;28;20057;-75
2022/11/07 11:45:53;;;;;;;22.73;6.65;;;12.30;99.90;;;;;;4964491;28;20058;-79
2022/11/07 11:48:39;;;;;;;20.17;7.18;;;12.40;99.90;;;;;;4958119;28;20058;-80
2022/11/07 11:51:14;;;;;;;18.27;6.78;;;12.50;99.90;;;;;;4979225;28;20042;-75
2022/11/07 11:53:45;;;;;;;15.57;6.15;;;12.50;99.90;;;;;;4971226;28;20060;-75
2022/11/07 12:00:15;;;;;;;19.00;6.40;;;12.70;99.90;;;;;;4994685;28;20400;-76
2022/11/07 12:03:13;;;;;;;18.05;6.13;;;12.70;99.90;;;;;;4990212;28;20545;-77
2022/11/07 12:06:00;;;;;;;16.83;6.78;;;12.80;99.90;;;;;;4965594;28;20050;-75
2022/11/07 12:08:47;;;;;;;15.55;5.57;;;12.90;99.90;;;;;;4986973;28;20081;-76
2022/11/07 12:11:32;;;;;;;13.20;5.60;;;13.00;99.90;;;;;;4972378;28;20045;-75
2022/11/07 12:14:15;;;;;;;18.08;5.70;;;13.10;99.90;;;;;;4991553;28;20057;-75
2022/11/07 12:16:57;;;;;;;13.50;5.57;;;13.10;99.90;;;;;;4975339;28;20527;-75
2022/11/07 12:19:44;;;;;;;;;;;13.10;99.90;;;;;;5003492;28;20060;-77
2022/11/07 12:22:10;;;;;;;14.30;5.50;;;13.10;99.90;;;;;;5004694;28;19929;-75
2022/11/07 12:24:51;;;;;;;14.38;5.25;;;13.20;99.90;;;;;;4993681;28;20103;-75
2022/11/07 12:27:22;;;;;;;;;;;13.30;99.90;;;;;;4953563;28;20050;-75
2022/11/07 12:30:06;;;;;;;18.63;5.70;;;13.40;99.90;;;;;;5008885;28;20449;-78
2022/11/07 12:32:45;;;;;;;12.60;4.63;;;13.50;99.90;;;;;;5006876;28;20046;-77
2022/11/07 12:35:32;;;;;;;11.82;4.78;;;13.60;99.90;;;;;;5007766;28;20109;-75
2022/11/07 12:38:04;;;;;;;13.35;4.53;;;13.60;99.90;;;;;;4958498;28;20071;-77
2022/11/07 12:40:56;;;;;;;12.40;4.72;;;13.50;99.90;;;;;;5003089;28;20052;-77
2022/11/07 12:43:43;;;;;;;11.93;4.47;;;13.50;99.90;;;;;;4988622;28;20049;-76
2022/11/07 12:46:34;;;;;;;16.88;4.50;;;13.50;99.90;;;;;;5007159;28;20057;-80
2022/11/07 12:49:37;;;;;;;9.73;3.90;;;13.50;99.90;;;;;;5005315;28;20111;-76
2022/11/07 12:52:25;;;;;;;16.05;3.92;;;13.50;99.90;;;;;;4989502;28;20084;-75
2022/11/07 12:55:04;;;;;;;14.80;4.05;;;13.40;99.90;;;;;;4984518;28;20077;-75
2022/11/07 12:57:33;;;;;;;13.38;3.95;;;13.50;99.90;;;;;;4970653;28;20054;-76
2022/11/07 13:00:08;;;;;;;16.05;4.57;;;13.40;99.90;;;;;;5005856;28;20119;-77
2022/11/07 13:02:46;;;;;;;12.02;3.75;;;13.40;99.90;;;;;;4970320;28;20052;-76
2022/11/07 13:05:42;;;;;;;14.13;4.13;;;13.30;99.90;;;;;;5007333;28;20398;-75
2022/11/07 13:08:26;;;;;;;12.23;4.05;;;13.30;99.90;;;;;;4989982;28;20142;-76